Plainview, South Dakota
Current Conditions -  °F | °C
As of 8:55 AM on Thursday 23 Oct 2014 (Local Time) from KPHP Reporting Station
Clear Clear  
Wind Chill: 40°   Ceiling: Unl
Heat Index: 43°   Visibility: 10mi
Dew Point: 35°   Wind: 5mph
Humidity: 74%   Direction: 260°W
Pressure: 29.98"   Gusts: NA
Location:  44.534°N, 102.24°W
Report Text: KPHP 231455Z AUTO 26004KT 10SM CLR 06/02 A2998 RMK AO2 SLP160 T00610017 50000
Loading
Personal Weather Stations






























Interactive Weather Map
Tropical Storm Tracking
New forecast layout! Learn more

10-Day Weather Forecast

Advertisements
Track Severe Weather on mobile